KDMO/DMO METAR and TAF weather

Enter ICAO airport designator
Station Type Date Time Source
KDMO METAR 2018/09/21 22:53 UTC NOAA

KDMO 212253Z AUTO 36008KT 10SM CLR 18/12 A3019 RMK AO2 SLP220 T01830122 $


Station Type Date Time Source
KDMO Decoded METAR 2018/09/21 22:53 UTC NOAA

SEDALIA MEMORIAL AIRPORT, MO, United States (KDMO) 38-43N 93-10W 274M
Sep 21, 2018 - 06:53 PM EDT / 2018.09.21 2253 UTC
Wind: from the N (360 degrees) at 9 MPH (8 KT):0
Visibility: 10 mile(s):0
Sky conditions: clear
Temperature: 64.9 F (18.3 C)
Dew Point: 54.0 F (12.2 C)
Relative Humidity: 67%
Pressure (altimeter): 30.19 in. Hg (1022 hPa)
ob: KDMO 212253Z AUTO 36008KT 10SM CLR 18/12 A3019 RMK AO2 SLP220 T01830122
cycle: 23

Station Type Date Time Source
KDMO TAF UTC NOAA

Error!


Example: see airport list